Share

Ho Chi Minh, Viet Nam

Tansonnhat (VVTS) Elev 62 ft | 10.82 °N, 106.67 °E | Change Station

Current weather conditions updated 32 minutes ago

Scattered Clouds
Scattered Clouds
84 °F
Feels Like 94 °F
N
9
Wind Variable Wind from SE
Sunrise 5:40 AM
Sunset 6:04 PM
Moon Waning Gibbous

Tomorrow is forecast to be nearly the same temperature as today. Showers and thunderstorms late.

Pressure 29.80 in
Visibility 6.2 miles
Clouds Scattered Clouds 1700 ft
Heat Index 94 °F
Dew Point 77 °F
Humidity 79%
Rainfall 0.00 in
Snow Depth Not available.
UV 0 out of 16
Pollen Not available.
Air Quality Not available.
Flu Activity Not available.
METAR VVTS 201500Z 14008KT 120V200 9999 SCT017 29/25 Q1009 NOSIG

More Conditions Fewer Conditions

Pressure 29.80 in
Visibility 6.2 miles
Clouds Scattered Clouds 1700 ft
Heat Index 94 °F
Dew Point 77 °F
Humidity 79%
Rainfall 0.00 in
Snow Depth Not available.
UV 0 out of 16
Pollen Not available.
Air Quality Not available.
Flu Activity Not available.
METAR VVTS 201500Z 14008KT 120V200 9999 SCT017 29/25 Q1009 NOSIG

More Conditions Fewer Conditions

10-Day Weather Forecast

Almanac

Astronomy

Apr. 20, 2014 Rise Set
Actual Time 5:40 AM ICT 6:04 PM ICT
Civil Twilight 5:18 AM ICT 6:26 PM ICT
Nautical Twilight 4:53 AM ICT 6:51 PM ICT
Astronomical Twilight 4:28 AM ICT 7:16 PM ICT
Moon 10:49 PM ICT 9:48 AM ICT
Length of Visible Light 13h 07m
Length of Day
12h 24m
Tomorrow will be 0m 33s longer.
Waning Gibbous, 69% of the Moon is Illuminated
Today
Waning Gibbous
Apr 22
Last Quarter
Apr 29
New
May 6
First Quarter
May 14
Full

Today's Extremes

Country Highs Country Lows

Community

  • Easter Sunrise
    Easter Sunrise
  • Easter Eve - The Promise - Lake Palestine, TX
    Easter Eve - The Promise - Lake Palestine, TX
  • Happy Easter
    Happy Easter
  • EARLY FOGGY MORNING
    EARLY FOGGY MORNING
  • Easter Greetings
    Easter Greetings

WunderPhotos

Upload Photos

1,703,258 photos uploaded!

Nearby

Snow Depth

Not available.

Coastal Water Temperatures

Place Temperature
No Stations Reporting

Earthquake Activity

City Distance Mag. Time & Date
No recent earthquake activity has been reported nearby.
Minimum magnitude displayed is 2.5.

Nearby Weather Stations

There are no personal weather stations in this area.

What do you think?

We're not finished. Please let us know what you like, what you don't like, and what you are still missing.